Time;durP1;ratioP1;P1;durP2;ratioP2;P2;SDS_P1;SDS_P2;PMS_P1;PMS_P2;Temp;Humidity;BMP_temperature;BMP_pressure;BME280_temperature;BME280_humidity;BME280_pressure;Samples;Min_cycle;Max_cycle;Signal;HPM_P1;HPM_P2
2024/01/15 00:02:25;;;;;;;9.13;8.03;;;;;;;18.75;40.78;96176.53;5051921;28;20192;-27
2024/01/15 00:04:52;;;;;;;9.00;8.10;;;;;;;18.77;40.84;96185.06;5052028;28;20288;-26
2024/01/15 00:07:19;;;;;;;8.20;7.43;;;;;;;18.77;40.89;96188.44;5046577;28;20225;-26
2024/01/15 00:09:45;;;;;;;9.50;8.50;;;;;;;18.78;40.86;96189.31;5051628;28;20220;-27
2024/01/15 00:12:12;;;;;;;9.17;8.27;;;;;;;18.77;40.70;96196.09;5051390;28;20227;-28
2024/01/15 00:14:39;;;;;;;10.17;9.07;;;;;;;18.77;40.97;96193.53;5052026;28;20193;-26
2024/01/15 00:17:05;;;;;;;9.10;8.17;;;;;;;18.45;40.53;96146.31;5051354;28;20630;-26
2024/01/15 00:19:32;;;;;;;9.80;8.80;;;;;;;18.76;40.68;96191.84;5051330;28;20229;-33
2024/01/15 00:21:59;;;;;;;10.03;8.67;;;;;;;18.75;40.45;96192.69;5051053;28;20232;-26
2024/01/15 00:24:25;;;;;;;10.50;9.40;;;;;;;18.75;40.49;96195.22;5051417;28;20193;-26
2024/01/15 00:26:53;;;;;;;9.50;8.50;;;;;;;18.75;40.68;96192.69;5050954;28;20323;-27
2024/01/15 00:29:20;;;;;;;10.77;9.30;;;;;;;18.74;41.21;96190.94;5050513;28;20216;-26
2024/01/15 00:31:47;;;;;;;9.73;8.73;;;;;;;18.73;40.52;96191.78;5054358;28;20251;-29
2024/01/15 00:34:13;;;;;;;9.20;8.23;;;;;;;18.74;40.56;96198.56;5055194;28;20208;-27
2024/01/15 00:36:40;;;;;;;9.47;8.50;;;;;;;18.72;40.75;96177.34;5055304;28;20251;-26
2024/01/15 00:39:07;;;;;;;8.87;7.97;;;;;;;18.64;40.62;96163.63;5054346;28;20603;-31
2024/01/15 00:41:33;;;;;;;9.73;8.43;;;;;;;18.73;41.16;96180.72;5055061;28;20300;-26
2024/01/15 00:44:00;;;;;;;10.53;8.67;;;;;;;18.74;40.63;96182.47;5053750;28;20246;-29
2024/01/15 00:46:26;;;;;;;8.27;7.40;;;;;;;18.73;40.65;96186.69;5055058;28;20250;-26
2024/01/15 00:48:53;;;;;;;9.13;8.20;;;;;;;18.75;41.32;96186.72;5054499;28;20216;-31
2024/01/15 00:51:20;;;;;;;9.07;8.07;;;;;;;18.76;40.96;96196.06;5054979;28;20193;-28
2024/01/15 00:53:46;;;;;;;10.27;8.83;;;;;;;18.75;40.56;96189.28;5055143;28;20193;-26
2024/01/15 00:56:13;;;;;;;10.23;9.10;;;;;;;18.75;40.53;96185.03;5054817;28;20208;-27
2024/01/15 00:58:39;;;;;;;9.73;8.73;;;;;;;18.74;40.53;96188.41;5053577;28;20374;-29
2024/01/15 01:01:06;;;;;;;10.43;9.33;;;;;;;18.75;40.67;96196.91;5054600;28;20197;-27
2024/01/15 01:03:33;;;;;;;9.30;8.33;;;;;;;18.74;40.73;96190.94;5054458;28;20239;-26
2024/01/15 01:05:59;;;;;;;10.17;9.07;;;;;;;18.73;40.94;96194.31;5054869;28;20593;-26
2024/01/15 01:08:26;;;;;;;10.50;8.63;;;;;;;18.73;40.94;96181.59;5054565;28;20217;-27
2024/01/15 01:10:53;;;;;;;9.33;8.00;;;;;;;18.73;40.74;96189.25;5047651;28;20651;-27
2024/01/15 01:13:19;;;;;;;9.67;8.57;;;;;;;18.70;41.13;96181.53;5054423;28;20197;-26
2024/01/15 01:15:46;;;;;;;9.27;8.23;;;;;;;18.65;40.94;96172.97;5054465;28;20201;-27
2024/01/15 01:18:12;;;;;;;10.17;8.33;;;;;;;18.72;40.71;96185.00;5054400;28;20204;-27
2024/01/15 01:20:39;;;;;;;10.43;8.87;;;;;;;18.73;40.71;96190.91;5054508;28;20647;-26
2024/01/15 01:23:06;;;;;;;9.30;8.30;;;;;;;18.72;40.01;96195.16;5053484;28;20205;-30
2024/01/15 01:25:33;;;;;;;9.10;8.13;;;;;;;18.73;40.71;96183.28;5054122;28;20572;-27
2024/01/15 01:27:59;;;;;;;8.83;7.93;;;;;;;18.73;41.54;96186.69;5053069;28;20216;-27
2024/01/15 01:30:26;;;;;;;9.07;8.13;;;;;;;18.74;41.36;96190.94;5053736;28;20703;-28
2024/01/15 01:32:53;;;;;;;9.20;8.10;;;;;;;18.76;41.00;96193.53;5054161;28;20296;-27
2024/01/15 01:35:19;;;;;;;9.87;8.57;;;;;;;18.75;40.76;96190.13;5052439;28;20204;-38
2024/01/15 01:37:46;;;;;;;8.73;7.83;;;;;;;18.74;40.62;96180.75;5053550;28;20668;-26
2024/01/15 01:40:13;;;;;;;10.40;8.80;;;;;;;18.72;40.68;96182.44;5054303;28;20231;-30
2024/01/15 01:42:39;;;;;;;9.63;8.57;;;;;;;18.73;40.83;96190.91;5053578;28;20254;-28
2024/01/15 01:45:06;;;;;;;10.43;8.90;;;;;;;18.73;40.74;96196.88;5054652;28;20200;-26
2024/01/15 01:47:33;;;;;;;9.30;7.90;;;;;;;18.71;40.61;96200.22;5053685;28;20274;-26
2024/01/15 01:49:59;;;;;;;10.13;9.00;;;;;;;18.71;40.73;96182.41;5051255;28;20706;-30
2024/01/15 01:52:26;;;;;;;9.70;8.37;;;;;;;18.68;40.65;96169.63;5044539;28;20205;-26
2024/01/15 01:54:52;;;;;;;9.57;7.97;;;;;;;18.69;40.82;96166.25;5036078;28;20660;-26
2024/01/15 01:57:19;;;;;;;9.50;8.10;;;;;;;18.70;40.93;96167.94;5052405;28;20276;-27
2024/01/15 01:59:46;;;;;;;10.27;8.87;;;;;;;18.71;40.69;96177.31;5052477;28;20786;-26
2024/01/15 02:02:12;;;;;;;9.30;8.13;;;;;;;18.71;40.90;96182.41;5046848;28;20205;-27
2024/01/15 02:04:39;;;;;;;10.33;8.37;;;;;;;18.72;40.79;96179.03;5049366;28;20465;-27
2024/01/15 02:07:05;;;;;;;8.63;7.40;;;;;;;18.74;40.89;96187.56;5061687;28;20683;-26
2024/01/15 02:09:32;;;;;;;8.73;7.83;;;;;;;18.74;41.34;96197.75;5047765;28;20259;-26
2024/01/15 02:11:59;;;;;;;9.67;7.70;;;;;;;18.75;41.67;96202.84;5046742;28;20201;-26
2024/01/15 02:14:25;;;;;;;8.10;7.30;;;;;;;18.74;40.83;96196.03;5052621;28;20207;-26
2024/01/15 02:16:52;;;;;;;9.17;7.67;;;;;;;18.74;40.70;96190.09;5018895;28;20250;-27
2024/01/15 02:19:18;;;;;;;8.63;7.73;;;;;;;18.74;40.88;96190.09;5053063;28;20220;-26
2024/01/15 02:21:45;;;;;;;9.23;7.83;;;;;;;18.73;40.82;96180.72;5053600;28;20259;-27
2024/01/15 02:24:12;;;;;;;11.50;8.73;;;;;;;18.70;41.03;96186.63;5053207;28;20197;-26
2024/01/15 02:26:39;;;;;;;10.77;8.60;;;;;;;18.70;40.57;96185.75;5035814;28;20403;-26
2024/01/15 02:29:07;;;;;;;9.27;8.00;;;;;;;18.72;40.61;96179.91;5042660;28;20217;-27
2024/01/15 02:31:35;;;;;;;9.27;7.83;;;;;;;18.72;40.82;96190.06;5049877;28;20224;-26
2024/01/15 02:34:01;;;;;;;10.10;8.00;;;;;;;18.71;40.46;96180.72;5045810;28;20208;-35
2024/01/15 02:36:28;;;;;;;8.67;7.77;;;;;;;18.71;40.61;96177.31;5049906;28;20201;-26
2024/01/15 02:38:55;;;;;;;9.87;8.40;;;;;;;18.72;40.42;96186.66;5047531;28;20256;-26
2024/01/15 02:41:21;;;;;;;9.10;7.67;;;;;;;18.71;40.67;96185.78;5055336;28;20249;-26
2024/01/15 02:43:48;;;;;;;9.97;8.27;;;;;;;18.73;40.61;96196.88;5053840;28;20205;-30
2024/01/15 02:46:16;;;;;;;9.47;7.93;;;;;;;18.73;40.68;96198.56;5052397;28;20204;-28
2024/01/15 02:48:42;;;;;;;8.60;7.43;;;;;;;18.75;40.81;96202.00;5052403;28;20684;-28
2024/01/15 02:51:09;;;;;;;9.60;7.63;;;;;;;18.74;41.13;96207.91;5052447;28;20193;-26
2024/01/15 02:53:36;;;;;;;8.80;7.30;;;;;;;18.74;40.88;96197.75;5052630;28;20208;-26
2024/01/15 02:56:03;;;;;;;9.00;7.67;;;;;;;18.73;40.67;96181.59;5052784;28;20201;-26
2024/01/15 02:58:29;;;;;;;9.60;7.53;;;;;;;18.73;40.83;96188.38;5052957;28;20221;-26
2024/01/15 03:00:56;;;;;;;8.97;7.07;;;;;;;18.74;40.73;96190.09;5048224;28;20197;-26
2024/01/15 03:03:23;;;;;;;9.57;8.17;;;;;;;18.73;40.61;96184.16;5052048;28;20207;-29
2024/01/15 03:05:49;;;;;;;9.03;7.63;;;;;;;18.73;40.75;96188.38;5052772;28;20204;-26
2024/01/15 03:08:17;;;;;;;8.30;7.30;;;;;;;18.71;40.98;96183.25;5047239;28;20280;-26
2024/01/15 03:10:43;;;;;;;9.37;8.07;;;;;;;18.71;40.56;96193.44;5052090;28;20722;-29
2024/01/15 03:13:10;;;;;;;8.83;7.93;;;;;;;18.71;40.85;96190.88;5052141;28;20197;-27
2024/01/15 03:15:36;;;;;;;8.20;7.13;;;;;;;18.71;40.66;96178.16;5052568;28;20582;-29
2024/01/15 03:18:03;;;;;;;8.87;7.80;;;;;;;18.72;40.82;96168.84;5052043;28;20204;-30
2024/01/15 03:20:30;;;;;;;9.47;7.70;;;;;;;18.70;40.87;96171.38;5051947;28;20221;-27
2024/01/15 03:22:57;;;;;;;7.67;6.77;;;;;;;18.72;40.99;96179.91;5052193;28;20200;-26
2024/01/15 03:25:24;;;;;;;9.07;8.03;;;;;;;18.73;40.89;96176.50;5052356;28;20687;-33
2024/01/15 03:27:50;;;;;;;7.97;7.17;;;;;;;18.74;41.52;96172.28;5052161;28;20278;-28
2024/01/15 03:30:17;;;;;;;8.37;7.03;;;;;;;18.75;40.90;96176.53;5051849;28;20221;-26
2024/01/15 03:32:44;;;;;;;8.57;7.07;;;;;;;18.75;40.89;96186.72;5051929;28;20581;-28
2024/01/15 03:35:10;;;;;;;10.27;7.77;;;;;;;18.74;40.88;96179.94;5051613;28;20204;-29
2024/01/15 03:37:37;;;;;;;7.93;6.57;;;;;;;18.74;40.80;96190.09;5051804;28;20201;-26
2024/01/15 03:40:04;;;;;;;7.70;6.90;;;;;;;18.73;40.90;96178.19;5050792;28;20225;-31
2024/01/15 03:42:31;;;;;;;8.43;7.03;;;;;;;18.73;41.09;96183.28;5050988;28;20694;-27
2024/01/15 03:44:58;;;;;;;8.37;7.20;;;;;;;18.72;40.78;96185.00;5051539;28;20371;-26
2024/01/15 03:47:24;;;;;;;8.07;6.90;;;;;;;18.71;40.96;96188.34;5050272;28;20192;-28
2024/01/15 03:49:51;;;;;;;8.43;6.87;;;;;;;18.72;40.12;96184.13;5050266;28;20220;-29
2024/01/15 03:52:18;;;;;;;8.30;7.40;;;;;;;18.70;40.58;96179.00;5051224;28;20197;-27
2024/01/15 03:54:44;;;;;;;8.27;7.40;;;;;;;18.72;41.02;96184.13;5051563;28;20208;-26
2024/01/15 03:57:11;;;;;;;8.33;7.03;;;;;;;18.72;40.79;96179.03;5050547;28;20288;-28
2024/01/15 03:59:37;;;;;;;7.63;6.70;;;;;;;18.72;40.89;96181.56;5047745;28;20590;-27
2024/01/15 04:02:04;;;;;;;7.70;6.77;;;;;;;18.71;40.93;96173.06;5049230;28;20201;-27
2024/01/15 04:04:31;;;;;;;6.80;6.07;;;;;;;18.72;41.13;96169.72;5051211;28;20200;-34
2024/01/15 04:06:57;;;;;;;7.70;6.90;;;;;;;18.71;40.93;96170.53;5054149;28;20648;-26
2024/01/15 04:09:24;;;;;;;7.53;6.50;;;;;;;18.75;40.98;96174.00;5054176;28;20274;-26
2024/01/15 04:11:51;;;;;;;7.60;6.80;;;;;;;18.75;40.81;96179.09;5053664;28;20201;-32
2024/01/15 04:14:17;;;;;;;7.60;6.73;;;;;;;18.74;40.90;96167.19;5049188;28;20287;-28
2024/01/15 04:16:44;;;;;;;7.77;6.70;;;;;;;18.72;40.90;96169.72;5055575;28;20198;-29
2024/01/15 04:19:10;;;;;;;7.60;6.80;;;;;;;18.67;40.84;96152.63;5056141;28;20571;-27
2024/01/15 04:21:37;;;;;;;7.33;6.50;;;;;;;18.73;40.73;96168.00;5055582;28;20204;-26
2024/01/15 04:24:04;;;;;;;7.27;6.27;;;;;;;18.74;41.25;96162.13;5055141;28;20280;-26
2024/01/15 04:26:30;;;;;;;7.70;6.90;;;;;;;18.72;41.08;96174.81;5055526;28;20204;-32
2024/01/15 04:28:58;;;;;;;7.17;6.47;;;;;;;18.72;41.02;96168.84;5052794;28;20696;-27
2024/01/15 04:31:26;;;;;;;6.37;5.63;;;;;;;18.71;40.90;96165.44;5053930;28;20262;-29
2024/01/15 04:33:54;;;;;;;7.43;6.63;;;;;;;18.72;40.46;96167.19;5054023;28;20207;-26
2024/01/15 04:36:20;;;;;;;7.47;6.33;;;;;;;18.71;40.70;96152.72;5054953;28;20288;-31
2024/01/15 04:38:47;;;;;;;7.23;6.37;;;;;;;18.72;40.86;96153.59;5054601;28;20217;-28
2024/01/15 04:41:14;;;;;;;7.13;6.00;;;;;;;18.72;40.87;96148.50;5054597;28;20209;-26
2024/01/15 04:43:40;;;;;;;6.67;5.97;;;;;;;18.73;41.00;96153.63;5052452;28;20259;-26
2024/01/15 04:46:07;;;;;;;6.33;5.73;;;;;;;18.74;41.16;96151.94;5054833;28;20197;-29
2024/01/15 04:48:33;;;;;;;6.70;6.00;;;;;;;18.75;41.00;96153.63;5053846;28;20312;-26
2024/01/15 04:51:00;;;;;;;6.33;5.70;;;;;;;18.73;40.91;96153.63;5054754;28;20232;-26
2024/01/15 04:53:27;;;;;;;6.83;6.13;;;;;;;18.74;40.89;96157.03;5054515;28;20200;-26
2024/01/15 04:55:53;;;;;;;6.27;5.60;;;;;;;18.74;41.20;96154.47;5055019;28;20204;-31
2024/01/15 04:58:20;;;;;;;6.93;6.10;;;;;;;18.74;41.15;96151.94;5059022;28;20227;-27
2024/01/15 05:00:47;;;;;;;7.00;6.30;;;;;;;18.72;40.73;96141.72;5056365;28;20204;-26
2024/01/15 05:03:13;;;;;;;6.70;5.97;;;;;;;18.73;40.95;96143.44;5054891;28;20304;-31
2024/01/15 05:05:40;;;;;;;5.60;5.10;;;;;;;18.73;40.96;96135.81;5054734;28;20563;-27
2024/01/15 05:08:07;;;;;;;7.50;6.10;;;;;;;18.73;40.80;96140.03;5054588;28;20349;-27
2024/01/15 05:10:33;;;;;;;5.67;5.13;;;;;;;18.69;41.15;96128.09;5054672;28;20626;-26
2024/01/15 05:13:00;;;;;;;6.47;5.53;;;;;;;18.72;40.92;96141.72;5054125;28;20299;-29
2024/01/15 05:15:26;;;;;;;7.17;5.60;;;;;;;18.65;41.05;96128.88;5050098;28;20645;-26
2024/01/15 05:17:53;;;;;;;6.67;5.73;;;;;;;18.73;40.55;96150.19;5051389;28;20201;-26
2024/01/15 05:20:20;;;;;;;6.13;5.43;;;;;;;18.73;41.07;96137.47;5053937;28;20307;-27
2024/01/15 05:22:47;;;;;;;6.83;5.50;;;;;;;18.74;41.10;96131.59;5053323;28;20622;-29
2024/01/15 05:25:13;;;;;;;7.63;5.40;;;;;;;18.76;41.23;96145.16;5054049;28;20232;-27
2024/01/15 05:27:40;;;;;;;10.03;5.83;;;;;;;18.77;41.15;96142.66;5053649;28;20255;-26
2024/01/15 05:30:06;;;;;;;7.23;5.63;;;;;;;18.78;40.99;96152.03;5051401;28;20712;-28
2024/01/15 05:32:33;;;;;;;6.87;5.83;;;;;;;18.76;39.88;96158.75;5054043;28;20193;-26
2024/01/15 05:35:00;;;;;;;6.87;5.87;;;;;;;18.77;39.96;96150.28;5053346;28;20197;-26
2024/01/15 05:37:26;;;;;;;6.33;5.67;;;;;;;18.77;40.53;96149.44;5053725;28;20291;-29
2024/01/15 05:39:53;;;;;;;8.17;5.90;;;;;;;18.68;40.49;96124.66;5055334;28;20647;-31
2024/01/15 05:42:19;;;;;;;5.97;5.37;;;;;;;18.76;40.71;96143.50;5053225;28;20223;-27
2024/01/15 05:44:46;;;;;;;7.23;5.83;;;;;;;18.76;40.43;96138.41;5053837;28;20263;-27
2024/01/15 05:47:13;;;;;;;6.23;5.63;;;;;;;18.76;40.53;96143.50;5053888;28;20247;-27
2024/01/15 05:49:39;;;;;;;7.17;5.57;;;;;;;18.77;40.48;96131.63;5053197;28;20318;-26
2024/01/15 05:52:06;;;;;;;8.17;5.83;;;;;;;18.77;40.02;96142.66;5052768;28;20200;-28
2024/01/15 05:54:33;;;;;;;9.00;5.83;;;;;;;18.75;40.39;96141.78;5053038;28;20242;-27
2024/01/15 05:56:59;;;;;;;6.10;5.50;;;;;;;18.66;39.28;96118.72;5053196;28;20573;-26
2024/01/15 05:59:26;;;;;;;7.70;6.40;;;;;;;18.74;39.06;96132.41;5053523;28;20312;-31
2024/01/15 06:01:52;;;;;;;7.00;6.27;;;;;;;18.73;38.74;96140.88;5051325;28;20212;-27
2024/01/15 06:04:19;;;;;;;8.27;6.40;;;;;;;18.73;38.63;96138.34;5056010;28;20196;-26
2024/01/15 06:06:46;;;;;;;6.77;6.07;;;;;;;18.76;36.75;96142.63;5052425;28;20295;-27
2024/01/15 06:09:13;;;;;;;10.97;6.57;;;;;;;18.78;37.66;96139.28;5051998;28;20220;-30
2024/01/15 06:11:39;;;;;;;8.80;6.40;;;;;;;18.78;37.62;96143.53;5052434;28;20197;-26
2024/01/15 06:14:06;;;;;;;6.80;6.00;;;;;;;18.78;38.51;96139.28;5052850;28;20196;-26
2024/01/15 06:16:32;;;;;;;8.40;6.37;;;;;;;18.81;38.71;96130.84;5052718;28;20274;-26
2024/01/15 06:18:59;;;;;;;7.77;6.10;;;;;;;18.81;39.02;96133.38;5051160;28;20271;-29
2024/01/15 06:21:26;;;;;;;6.87;5.73;;;;;;;18.81;39.38;96126.63;5052690;28;20212;-26
2024/01/15 06:23:52;;;;;;;7.33;5.90;;;;;;;18.83;39.46;96129.19;5051848;28;20255;-38
2024/01/15 06:26:19;;;;;;;7.50;6.23;;;;;;;18.79;39.52;96113.00;5052039;28;20296;-36
2024/01/15 06:28:46;;;;;;;9.07;5.33;;;;;;;18.80;39.32;96117.25;5050740;28;20239;-26
2024/01/15 06:31:13;;;;;;;7.70;5.50;;;;;;;18.82;39.73;96107.09;5051017;28;20671;-26
2024/01/15 06:33:40;;;;;;;13.37;5.30;;;;;;;18.83;39.74;96104.59;5051547;28;20201;-28
2024/01/15 06:36:07;;;;;;;8.03;5.43;;;;;;;18.85;40.00;96104.59;5052346;28;20196;-28
2024/01/15 06:38:34;;;;;;;7.87;5.63;;;;;;;18.84;39.85;96113.94;5051890;28;20232;-28
2024/01/15 06:41:01;;;;;;;7.77;5.00;;;;;;;18.84;39.82;96119.03;5052432;28;20280;-28
2024/01/15 06:43:27;;;;;;;7.03;5.40;;;;;;;18.83;40.03;96106.28;5051984;28;20217;-27
2024/01/15 06:45:54;;;;;;;5.87;5.03;;;;;;;18.85;40.11;96109.69;5052643;28;20232;-26
2024/01/15 06:48:20;;;;;;;7.03;5.53;;;;;;;18.85;40.08;96113.13;5055192;28;20201;-27
2024/01/15 06:50:47;;;;;;;7.60;5.17;;;;;;;18.85;39.79;96112.25;5051644;28;20251;-26
2024/01/15 06:53:14;;;;;;;7.47;5.27;;;;;;;18.80;38.19;96096.91;5051255;28;20204;-30
2024/01/15 06:55:40;;;;;;;6.23;5.33;;;;;;;18.80;37.34;96094.34;5050650;28;20205;-27
2024/01/15 06:58:07;;;;;;;5.93;5.30;;;;;;;18.81;38.44;96098.63;5050664;28;20616;-28
2024/01/15 07:00:33;;;;;;;7.57;5.70;;;;;;;18.81;39.41;96106.25;5052622;28;20193;-26
2024/01/15 07:03:00;;;;;;;12.10;5.40;;;;;;;18.72;39.10;96093.38;5037336;28;20652;-26
2024/01/15 07:05:27;;;;;;;5.83;5.00;;;;;;;18.81;39.02;96108.81;5047048;28;20208;-27
2024/01/15 07:07:55;;;;;;;7.50;5.20;;;;;;;18.80;39.61;96107.06;5048750;28;20624;-33
2024/01/15 07:10:22;;;;;;;6.13;5.20;;;;;;;18.80;39.74;96107.06;5048610;28;20598;-31
2024/01/15 07:12:48;;;;;;;5.60;4.60;;;;;;;18.81;39.65;96107.94;5048496;28;20217;-26
2024/01/15 07:15:15;;;;;;;6.97;5.03;;;;;;;18.78;39.51;96105.34;5048577;28;20255;-29
2024/01/15 07:17:42;;;;;;;5.40;4.43;;;;;;;18.79;40.43;96109.59;5048427;28;20208;-26
2024/01/15 07:20:09;;;;;;;10.57;5.20;;;;;;;18.77;40.23;96109.56;5047474;28;20722;-33
2024/01/15 07:22:36;;;;;;;6.30;4.83;;;;;;;18.81;40.23;96113.03;5048421;28;20594;-29
2024/01/15 07:25:04;;;;;;;8.00;5.00;;;;;;;18.79;40.22;96117.22;5047237;28;20296;-29
2024/01/15 07:27:31;;;;;;;6.07;4.40;;;;;;;18.79;40.32;96114.69;5040391;28;20216;-28
2024/01/15 07:29:58;;;;;;;6.67;4.40;;;;;;;18.78;40.28;96103.66;5047087;28;20246;-32
2024/01/15 07:32:28;;;;;;;6.03;4.33;;;;;;;18.80;40.33;96109.63;5044735;28;20303;-34
2024/01/15 07:34:55;;;;;;;5.80;4.73;;;;;;;18.82;40.37;96110.50;5047615;28;20219;-29
2024/01/15 07:37:23;;;;;;;5.23;4.13;;;;;;;18.81;41.05;96120.66;5046866;28;20216;-32
2024/01/15 07:39:49;;;;;;;4.97;4.40;;;;;;;18.81;39.91;96124.09;5047212;28;20236;-28
2024/01/15 07:42:16;;;;;;;5.97;4.83;;;;;;;18.81;40.83;96116.44;5043522;28;20205;-35
2024/01/15 07:44:43;;;;;;;5.40;4.03;;;;;;;18.80;40.66;96117.25;5041966;28;20288;-29
2024/01/15 07:47:09;;;;;;;6.10;4.33;;;;;;;18.79;40.77;96113.00;5047924;28;20212;-28
2024/01/15 07:49:36;;;;;;;4.43;3.90;;;;;;;18.79;40.61;96120.63;5047951;28;20264;-29
2024/01/15 07:52:04;;;;;;;5.03;4.07;;;;;;;18.51;40.78;96079.41;5051352;28;20223;-31
2024/01/15 07:54:31;;;;;;;4.77;4.20;;;;;;;18.78;39.81;96124.03;5047430;28;20197;-30
2024/01/15 07:57:03;;;;;;;5.13;4.57;;;;;;;18.78;38.90;96131.66;5046073;28;20201;-30
2024/01/15 07:59:29;;;;;;;5.83;4.60;;;;;;;18.78;39.69;96136.75;5044314;28;20248;-30
2024/01/15 08:01:56;;;;;;;6.00;4.70;;;;;;;18.78;39.77;96136.75;5048430;28;20235;-29
2024/01/15 08:04:23;;;;;;;5.10;3.90;;;;;;;18.79;40.40;96127.41;5047287;28;20201;-26
2024/01/15 08:06:49;;;;;;;5.73;4.40;;;;;;;18.79;39.74;96128.28;5048272;28;20658;-29
2024/01/15 08:09:16;;;;;;;6.37;4.70;;;;;;;18.80;39.72;96129.97;5048285;28;20228;-31
2024/01/15 08:11:43;;;;;;;5.97;4.30;;;;;;;18.80;40.11;96124.88;5048356;28;20205;-28
2024/01/15 08:14:10;;;;;;;4.80;4.30;;;;;;;18.80;40.19;96124.06;5047384;28;20204;-30
2024/01/15 08:16:37;;;;;;;4.40;3.70;;;;;;;18.78;40.16;96120.63;5047728;28;20259;-27
2024/01/15 08:19:03;;;;;;;6.23;4.40;;;;;;;18.78;39.26;96125.69;5047805;28;20279;-28
2024/01/15 08:21:31;;;;;;;6.10;4.60;;;;;;;18.78;40.16;96124.03;5062054;28;20220;-27
2024/01/15 08:23:59;;;;;;;5.17;4.07;;;;;;;18.78;40.15;96118.06;5045280;28;20709;-34
2024/01/15 08:26:25;;;;;;;6.07;3.83;;;;;;;18.78;40.23;96118.06;5048854;28;20201;-29
2024/01/15 08:28:52;;;;;;;4.60;3.90;;;;;;;18.79;40.30;96119.78;5048260;28;20228;-30
2024/01/15 08:31:19;;;;;;;4.53;3.63;;;;;;;18.78;40.47;96112.97;5052800;28;20720;-29
2024/01/15 08:33:46;;;;;;;5.00;3.97;;;;;;;18.79;40.86;96123.19;5050384;28;20209;-27
2024/01/15 08:36:12;;;;;;;5.23;4.13;;;;;;;18.81;40.25;96110.50;5057027;28;20201;-30
2024/01/15 08:38:39;;;;;;;5.40;3.77;;;;;;;18.82;40.13;96107.09;5049999;28;20278;-26
2024/01/15 08:41:06;;;;;;;7.10;4.20;;;;;;;18.81;40.62;96110.50;5050122;28;20193;-26
2024/01/15 08:43:32;;;;;;;7.20;3.90;;;;;;;18.81;40.58;96107.94;5056856;28;20296;-26
2024/01/15 08:45:59;;;;;;;8.30;4.07;;;;;;;18.80;41.02;96111.34;5050248;28;20606;-29
2024/01/15 08:48:29;;;;;;;4.93;4.13;;;;;;;18.80;41.00;96112.16;5049611;28;20205;-27
2024/01/15 08:50:56;;;;;;;7.27;4.07;;;;;;;18.80;41.00;96117.25;5049942;28;20711;-27
2024/01/15 08:53:23;;;;;;;4.03;3.63;;;;;;;18.80;41.36;96116.41;5060654;28;20572;-26
2024/01/15 08:55:49;;;;;;;4.67;3.90;;;;;;;18.79;41.06;96113.00;5053811;28;20205;-29
2024/01/15 08:58:17;;;;;;;4.87;3.90;;;;;;;18.81;41.01;96120.66;5052880;28;20284;-27
2024/01/15 09:00:44;;;;;;;5.13;3.60;;;;;;;18.79;41.00;96113.00;5056268;28;20579;-27
2024/01/15 09:03:11;;;;;;;5.27;3.97;;;;;;;18.79;40.95;96115.56;5053047;28;20197;-26
2024/01/15 09:05:38;;;;;;;5.33;3.93;;;;;;;18.80;40.65;96113.88;5057413;28;20615;-26
2024/01/15 09:08:05;;;;;;;5.73;3.53;;;;;;;18.81;40.78;96107.94;5052617;28;20251;-27
2024/01/15 09:10:32;;;;;;;3.93;3.40;;;;;;;18.82;40.96;96105.44;5052404;28;20687;-26
2024/01/15 09:13:00;;;;;;;4.20;3.57;;;;;;;18.82;41.03;96107.09;5055535;28;20574;-27
2024/01/15 09:15:27;;;;;;;3.50;3.17;;;;;;;18.82;41.03;96115.59;5052155;28;20224;-27
2024/01/15 09:17:54;;;;;;;4.90;3.67;;;;;;;18.82;41.18;96109.66;5055090;28;20205;-30
2024/01/15 09:20:21;;;;;;;4.37;3.70;;;;;;;18.82;41.64;96114.75;5053067;28;20224;-28
2024/01/15 09:22:47;;;;;;;4.47;3.27;;;;;;;18.81;41.11;96121.53;5054555;28;20204;-27
2024/01/15 09:25:14;;;;;;;4.00;3.60;;;;;;;18.81;41.06;96121.53;5053403;28;20263;-26
2024/01/15 09:27:40;;;;;;;4.30;3.50;;;;;;;18.82;41.30;96115.59;5055009;28;20216;-30
2024/01/15 09:30:08;;;;;;;3.77;3.13;;;;;;;18.82;41.51;96117.28;5053420;28;20225;-30
2024/01/15 09:32:35;;;;;;;6.30;3.77;;;;;;;18.82;41.44;96107.97;5052340;28;20729;-28
2024/01/15 09:35:02;;;;;;;3.43;3.13;;;;;;;18.83;41.59;96109.66;5053429;28;20677;-26
2024/01/15 09:37:28;;;;;;;4.63;3.13;;;;;;;18.82;41.37;96113.06;5053845;28;20291;-26
2024/01/15 09:40:14;;;;;;;4.27;3.23;;;;;;;18.83;41.42;96116.47;5056785;28;20224;-33
2024/01/15 09:42:41;;;;;;;3.60;3.30;;;;;;;18.83;41.40;96114.75;5053202;28;20201;-27
2024/01/15 09:45:09;;;;;;;5.57;3.10;;;;;;;18.83;41.27;96108.84;5048876;28;20244;-27
2024/01/15 09:47:36;;;;;;;3.80;3.17;;;;;;;18.83;41.55;96104.59;5052727;28;20575;-32
2024/01/15 09:50:07;;;;;;;4.80;3.20;;;;;;;18.84;41.27;96108.88;5052179;28;20312;-29
2024/01/15 09:52:34;;;;;;;4.13;3.40;;;;;;;18.83;41.25;96103.75;5045528;28;20699;-26
2024/01/15 09:55:05;;;;;;;4.33;3.50;;;;;;;18.85;41.57;96107.16;5044457;28;20689;-27
2024/01/15 09:57:32;;;;;;;5.67;3.50;;;;;;;18.85;41.35;96105.47;5050120;28;20244;-40
2024/01/15 09:59:59;;;;;;;4.63;3.40;;;;;;;18.82;41.41;96107.97;5048181;28;20217;-26
2024/01/15 10:02:26;;;;;;;3.93;3.20;;;;;;;18.85;41.60;96107.16;5040101;28;20232;-29
2024/01/15 10:04:52;;;;;;;3.30;3.00;;;;;;;18.86;41.84;96106.34;5047874;28;20729;-28
2024/01/15 10:07:22;;;;;;;2.97;2.67;;;;;;;18.82;41.47;96099.47;5052500;28;20204;-31
2024/01/15 10:09:48;;;;;;;4.03;3.60;;;;;;;18.83;41.55;96098.66;5031802;28;20420;-34
2024/01/15 10:12:15;;;;;;;3.07;2.67;;;;;;;18.83;41.65;96094.41;5048013;28;20254;-37
2024/01/15 10:14:43;;;;;;;2.93;2.70;;;;;;;18.76;41.61;96069.69;5048743;28;20588;-27
2024/01/15 10:17:17;;;;;;;4.80;3.07;;;;;;;18.80;41.80;96076.53;5051514;28;20232;-36
2024/01/15 10:19:46;;;;;;;3.67;3.10;;;;;;;18.83;41.70;96075.75;5051967;28;20715;-29
2024/01/15 10:22:16;;;;;;;3.13;2.83;;;;;;;18.84;41.66;96082.53;5049433;28;20209;-30
2024/01/15 10:24:43;;;;;;;3.50;2.93;;;;;;;18.83;41.81;96073.22;5049095;28;20630;-35
2024/01/15 10:27:10;;;;;;;4.60;3.30;;;;;;;18.82;41.82;96064.69;5049722;28;20197;-29
2024/01/15 10:29:37;;;;;;;4.07;3.37;;;;;;;18.85;41.83;96056.25;5049191;28;20312;-27
2024/01/15 10:32:08;;;;;;;3.60;3.00;;;;;;;18.77;41.47;96048.50;5046103;28;20254;-39
2024/01/15 10:34:37;;;;;;;3.47;2.77;;;;;;;18.85;41.57;96058.78;5050007;28;20275;-27
2024/01/15 10:37:04;;;;;;;3.40;3.10;;;;;;;18.85;41.62;96054.56;5049686;28;20295;-29
2024/01/15 10:39:31;;;;;;;3.03;2.77;;;;;;;18.86;41.62;96058.00;5048129;28;20243;-27
2024/01/15 10:41:57;;;;;;;5.00;3.20;;;;;;;18.84;41.57;96057.97;5051673;28;20284;-30
2024/01/15 10:44:25;;;;;;;3.20;2.90;;;;;;;18.85;41.54;96057.13;5047836;28;20263;-28
2024/01/15 10:46:52;;;;;;;3.20;2.90;;;;;;;18.85;41.62;96057.13;5051300;28;20212;-32
2024/01/15 10:49:19;;;;;;;5.00;2.97;;;;;;;18.85;42.07;96057.13;5048714;28;20224;-26
2024/01/15 10:51:46;;;;;;;3.40;2.80;;;;;;;18.86;41.97;96056.28;5049518;28;20231;-30
2024/01/15 10:54:13;;;;;;;3.20;2.90;;;;;;;18.83;41.78;96045.22;5046211;28;20197;-34
2024/01/15 10:56:39;;;;;;;2.67;2.47;;;;;;;18.85;41.71;96056.25;5045400;28;21489;-31
2024/01/15 10:59:07;;;;;;;4.40;3.20;;;;;;;18.84;40.15;96057.97;5048317;28;20702;-33
2024/01/15 11:01:34;;;;;;;4.03;3.63;;;;;;;18.79;40.15;96051.06;5040403;28;20201;-26
2024/01/15 11:04:01;;;;;;;4.63;3.43;;;;;;;18.83;40.36;96055.38;5031112;28;20547;-28
2024/01/15 11:06:28;;;;;;;4.47;3.47;;;;;;;18.72;41.04;96039.94;5045831;28;20674;-27
2024/01/15 11:08:55;;;;;;;3.30;3.00;;;;;;;18.83;40.80;96055.38;5047711;28;20270;-33
2024/01/15 11:11:23;;;;;;;6.27;3.77;;;;;;;18.84;41.19;96052.00;5047835;28;20252;-29
2024/01/15 11:13:52;;;;;;;3.33;2.90;;;;;;;18.84;41.28;96037.59;5048307;28;20208;-34
2024/01/15 11:16:18;;;;;;;4.30;3.30;;;;;;;18.86;40.83;96032.53;5047364;28;20667;-28
2024/01/15 11:18:57;;;;;;;3.37;2.83;;;;;;;18.75;41.30;96022.19;5048718;28;20228;-32
2024/01/15 11:21:25;;;;;;;3.27;2.93;;;;;;;18.86;41.03;96038.47;5049531;28;20602;-32
2024/01/15 11:23:58;;;;;;;3.60;3.30;;;;;;;18.86;41.56;96033.38;5047531;28;20201;-26
2024/01/15 11:26:40;;;;;;;5.47;3.13;;;;;;;18.87;41.26;96047.84;5047890;28;20201;-27
2024/01/15 11:29:08;;;;;;;3.67;2.77;;;;;;;18.86;41.61;96037.63;5048139;28;20641;-32
2024/01/15 11:31:38;;;;;;;3.70;2.87;;;;;;;18.87;41.40;96037.66;5048403;28;20255;-31